地図

経路データ

SID SEASON NUMBER BASIN SUBBASIN NAME ISO_TIME NATURE LAT LON WMO_WIND WMO_PRES WMO_AGENCY TRACK_TYPE DIST2LAND LANDFALL IFLAG USA_AGENCY USA_ATCF_ID USA_LAT USA_LON USA_RECORD USA_STATUS USA_WIND USA_PRES USA_SSHS USA_R34_NE USA_R34_SE USA_R34_SW USA_R34_NW USA_R50_NE USA_R50_SE USA_R50_SW USA_R50_NW USA_R64_NE USA_R64_SE USA_R64_SW USA_R64_NW USA_POCI USA_ROCI USA_RMW USA_EYE TOKYO_LAT TOKYO_LON TOKYO_GRADE TOKYO_WIND TOKYO_PRES TOKYO_R50_DIR TOKYO_R50_LONG TOKYO_R50_SHORT TOKYO_R30_DIR TOKYO_R30_LONG TOKYO_R30_SHORT TOKYO_LAND CMA_LAT CMA_LON CMA_CAT CMA_WIND CMA_PRES HKO_LAT HKO_LON HKO_CAT HKO_WIND HKO_PRES NEWDELHI_LAT NEWDELHI_LON NEWDELHI_GRADE NEWDELHI_WIND NEWDELHI_PRES NEWDELHI_CI NEWDELHI_DP NEWDELHI_POCI REUNION_LAT REUNION_LON REUNION_TYPE REUNION_WIND REUNION_PRES REUNION_TNUM REUNION_CI REUNION_RMW REUNION_R34_NE REUNION_R34_SE REUNION_R34_SW REUNION_R34_NW REUNION_R50_NE REUNION_R50_SE REUNION_R50_SW REUNION_R50_NW REUNION_R64_NE REUNION_R64_SE REUNION_R64_SW REUNION_R64_NW BOM_LAT BOM_LON BOM_TYPE BOM_WIND BOM_PRES BOM_TNUM BOM_CI BOM_RMW BOM_R34_NE BOM_R34_SE BOM_R34_SW BOM_R34_NW BOM_R50_NE BOM_R50_SE BOM_R50_SW BOM_R50_NW BOM_R64_NE BOM_R64_SE BOM_R64_SW BOM_R64_NW BOM_ROCI BOM_POCI BOM_EYE BOM_POS_METHOD BOM_PRES_METHOD NADI_LAT NADI_LON NADI_CAT NADI_WIND NADI_PRES WELLINGTON_LAT WELLINGTON_LON WELLINGTON_WIND WELLINGTON_PRES DS824_LAT DS824_LON DS824_STAGE DS824_WIND DS824_PRES TD9636_LAT TD9636_LON TD9636_STAGE TD9636_WIND TD9636_PRES TD9635_LAT TD9635_LON TD9635_WIND TD9635_PRES TD9635_ROCI NEUMANN_LAT NEUMANN_LON NEUMANN_CLASS NEUMANN_WIND NEUMANN_PRES MLC_LAT MLC_LON MLC_CLASS MLC_WIND MLC_PRES USA_GUST BOM_GUST BOM_GUST_PER REUNION_GUST REUNION_GUST_PER USA_SEAHGT USA_SEARAD_NE USA_SEARAD_SE USA_SEARAD_SW USA_SEARAD_NW STORM_SPEED STORM_DIR
1982261N20150 1982 79 WP MM NOT_NAMED 1982-09-17 12:00:00 TS 20.0000 150.000 main 1936 1911 __O___________ -1 20.0000 150.000 1 23 1008 7 285
1982261N20150 1982 79 WP MM NOT_NAMED 1982-09-17 15:00:00 TS 20.0900 149.630 main 1906 1877 __P___________ -1 20.0900 149.630 1 23 1008 8 285
1982261N20150 1982 79 WP MM NOT_NAMED 1982-09-17 18:00:00 TS 20.2000 149.200 main 1877 1843 __O___________ -1 20.2000 149.200 1 23 1008 9 285
1982261N20150 1982 79 WP MM NOT_NAMED 1982-09-17 21:00:00 TS 20.3302 148.685 main 1843 1811 __P___________ -1 20.3302 148.685 1 23 1008 10 282
1982261N20150 1982 79 WP MM NOT_NAMED 1982-09-18 00:00:00 TS 20.4000 148.200 main 1811 1798 __O___________ -1 20.4000 148.200 1 23 1008 8 270
1982261N20150 1982 79 WP MM NOT_NAMED 1982-09-18 03:00:00 TS 20.3298 147.870 main 1808 1800 __P___________ -1 20.3298 147.870 1 23 1007 6 250
1982261N20150 1982 79 WP MM NOT_NAMED 1982-09-18 06:00:00 TS 20.2000 147.600 main 1806 1794 __O___________ -1 20.2000 147.600 1 23 1006 5 251
1982261N20150 1982 79 WP MM NOT_NAMED 1982-09-18 09:00:00 TS 20.1597 147.331 main 1794 1794 __P___________ -1 20.1597 147.331 1 23 1006 6 250
1982261N20150 1982 79 WP MM NOT_NAMED 1982-09-18 12:00:00 TS 20.0000 147.000 main 1803 1803 __O___________ -1 20.0000 147.000 1 23 1006 9 231
1982261N20150 1982 79 WP MM NOT_NAMED 1982-09-18 15:00:00 TS 19.5673 146.552 main 1830 1830 __P___________ -1 19.5673 146.552 1 23 1006 14 223
1982261N20150 1982 79 WP MM NOT_NAMED 1982-09-18 18:00:00 TS 19.0000 146.000 main 1874 1874 __O___________ -1 19.0000 146.000 1 23 1006 16 226
1982261N20150 1982 79 WP MM NOT_NAMED 1982-09-18 21:00:00 TS 18.4429 145.327 main 1918 1915 __P___________ -1 18.4429 145.327 1 23 1006 17 228
1982261N20150 1982 79 WP MM NOT_NAMED 1982-09-19 00:00:00 TS 17.9000 144.700 main 1945 1945 __O___________ -1 17.9000 144.700 1 23 1006 14 222
1982261N20150 1982 79 WP MM NOT_NAMED 1982-09-19 03:00:00 TS 17.4045 144.328 main 1978 1978 __P___________ -1 17.4045 144.328 1 23 1006 11 217
1982261N20150 1982 79 WP MM NOT_NAMED 1982-09-19 06:00:00 TS 17.0000 144.000 main 2007 2002 __O___________ -1 17.0000 144.000 1 23 1006 11 226
1982261N20150 1982 79 WP MM NOT_NAMED 1982-09-19 09:00:00 TS 16.6601 143.515 main 2002 1945 __P___________ -1 16.6601 143.515 1 23 1006 11 242
1982261N20150 1982 79 WP MM NOT_NAMED 1982-09-19 12:00:00 TS 16.5000 143.000 main 1945 1906 __O___________ -1 16.5000 143.000 1 23 1006 9 266
1982261N20150 1982 79 WP MM NOT_NAMED 1982-09-19 15:00:00 TS 16.5899 142.543 main 1895 1859 __P___________ -1 16.5899 142.543 1 23 1006 9 289
1982261N20150 1982 79 WP MM NOT_NAMED 1982-09-19 18:00:00 TS 16.8000 142.100 main 1859 1821 __O___________ -1 16.8000 142.100 1 23 1006 9 293
1982261N20150 1982 79 WP MM NOT_NAMED 1982-09-19 21:00:00 TS 16.9574 141.650 main 1823 1762 __P___________ -1 16.9574 141.650 1 26 1005 10 281
1982261N20150 1982 79 WP MM NOT_NAMED 1982-09-20 00:00:00 TS 16.9800 141.100 main 1762 1718 __O_______O___ -1 17.1000 141.200 1 29 1004 16.5000 140.700 0 9 269
1982261N20150 1982 79 WP MM NOT_NAMED 1982-09-20 03:00:00 TS 16.9490 140.672 main 1718 1680 __P_______P___ -1 17.1699 140.742 1 29 1004 16.5072 140.531 0 7 269
1982261N20150 1982 79 WP MM NOT_NAMED 1982-09-20 06:00:00 TS 16.9691 140.327 main 1680 1663 __O_______P___ -1 17.3000 140.300 1 29 1004 16.5280 140.363 0 6 286
1982261N20150 1982 79 WP MM NOT_NAMED 1982-09-20 09:00:00 TS 17.1241 140.043 main 1653 1640 __P_______P___ -1 17.6724 139.885 1 29 1004 16.5758 140.200 0 6 304
1982261N20150 1982 79 WP MM NOT_NAMED 1982-09-20 12:00:00 TS 17.3322 139.771 main 1640 1613 __O_______P___ -1 18.0000 139.500 1 29 1004 16.6645 140.041 0 6 300
1982261N20150 1982 79 WP MM NOT_NAMED 1982-09-20 15:00:00 TS 17.4087 139.520 main 1613 1603 __P_______P___ -1 18.0098 139.150 1 29 1004 16.8075 139.891 0 4 283
1982261N20150 1982 79 WP MM NOT_NAMED 1982-09-20 18:00:00 TS 17.4194 139.388 main 1603 1587 __OO______P___ -1 17.9000 138.800 1 29 1004 17.1000 140.300 TD 25 1002 17.0187 139.749 0 3 291
1982261N20150 1982 79 WP MM NOT_NAMED 1982-09-20 21:00:00 TS 17.5092 139.242 main 1587 1581 __PP______P___ -1 17.7901 138.385 1 29 1003 17.3425 140.205 TD 27 1001 17.3116 139.618 0 4 318
1982261N20150 1982 79 WP MM NOT_NAMED 1982-09-21 00:00:00 TS 17.7091 139.118 main 1585 1583 __OO______O___ -1 17.8000 138.000 1 29 1002 17.6000 140.100 TD 30 1000 17.7000 139.500 0 6 339
1982261N20150 1982 79 WP MM NOT_NAMED 1982-09-21 03:00:00 TS 18.0564 139.018 main 1592 1591 __PP______P___ -1 18.0975 137.690 1 29 1002 17.8850 139.972 TD 30 1000 18.1869 139.390 0 8 344
1982261N20150 1982 79 WP MM NOT_NAMED 1982-09-21 06:00:00 TS 18.4870 138.888 main 1600 1577 O_OO______P___ jtwc_wp WP221982 18.6000 139.300 30 -1 18.5000 137.500 1 29 1002 18.2000 139.800 TD 30 1000 18.7327 139.260 0 9 345
1982261N20150 1982 79 WP MM NOT_NAMED 1982-09-21 09:00:00 TS 18.9041 138.773 main 1577 1528 P_PP______P___ WP221982 19.2199 139.100 30 -1 18.7699 137.477 1 26 1003 18.4973 139.602 TD 30 1000 19.2872 139.075 0 9 342
1982261N20150 1982 79 WP MM NOT_NAMED 1982-09-21 12:00:00 TS 19.3733 138.587 main 1518 1454 O_OO______O___ jtwc_wp WP221982 19.8000 138.800 30 -1 19.1000 137.500 1 23 1004 18.9000 139.300 TD 30 1000 19.8000 138.800 1 30 11 333
1982261N20150 1982 79 WP MM NOT_NAMED 1982-09-21 15:00:00 TS 19.8877 138.247 main 1449 1380 P_PP______P___ WP221982 20.3026 138.338 30 -1 19.6050 137.437 1 23 1005 19.5348 138.868 TD 30 1000 20.1083 138.344 1 30 13 323
1982261N20150 1982 79 WP MM NOT_NAMED 1982-09-21 18:00:00 TS 20.3819 137.768 main 1380 1315 O_OO______P___ jtwc_wp WP221982 20.7000 137.800 30 -1 20.2000 137.300 1 23 1006 20.2000 138.300 TD 30 1000 20.3822 137.806 1 30 13 315
1982261N20150 1982 79 WP MM NOT_NAMED 1982-09-21 21:00:00 TS 20.8157 137.270 main 1315 1251 P_PP______P___ WP221982 20.9501 137.269 30 -1 20.8374 137.095 1 23 1006 20.7057 137.628 TD 27 1001 20.7147 137.266 1 30 12 314
1982261N20150 1982 79 WP MM NOT_NAMED 1982-09-22 00:00:00 TS 21.2455 136.809 main 1251 1178 O_OO______O___ jtwc_wp WP221982 21.2000 136.800 30 -1 21.4000 136.800 1 23 1006 21.1000 136.900 TD 25 1003 21.2000 136.800 1 30 13 323
1982261N20150 1982 79 WP MM NOT_NAMED 1982-09-22 03:00:00 TS 21.8486 136.446 main 1173 1084 P_P_______P___ WP221982 21.5999 136.461 27 -1 21.7628 136.423 1 23 1006 TD 22.0158 136.451 1 16 337
1982261N20150 1982 79 WP MM NOT_NAMED 1982-09-22 06:00:00 TS 22.6711 136.162 main 1074 949 O_O_______P___ jtwc_wp WP221982 22.1000 136.200 25 -1 22.0000 136.000 1 23 1006 22.9817 136.193 1 22 350
1982261N20150 1982 79 WP MM NOT_NAMED 1982-09-22 09:00:00 NR 23.9818 136.039 main 939 853 __________P___ WP221982 -1 1 23.9818 136.039 1 22 356
1982261N20150 1982 79 WP MM NOT_NAMED 1982-09-22 12:00:00 NR 24.9000 136.000 main 853 801 __________O___ -1 24.9000 136.000 1 15 356
1982261N20150 1982 79 WP MM NOT_NAMED 1982-09-22 15:00:00 NR 25.4301 135.930 main 801 760 __________P___ -1 25.4301 135.930 1 10 359
1982261N20150 1982 79 WP MM NOT_NAMED 1982-09-22 18:00:00 NR 25.8865 135.995 main 760 727 __________P___ -1 25.8865 135.995 1 10 17
1982261N20150 1982 79 WP MM NOT_NAMED 1982-09-22 21:00:00 NR 26.4249 136.261 main 733 702 __________P___ -1 26.4249 136.261 1 15 29
1982261N20150 1982 79 WP MM NOT_NAMED 1982-09-23 00:00:00 NR 27.2000 136.800 main 698 586 __________O___ -1 27.2000 136.800 1 25 32
1982261N20150 1982 79 WP MM NOT_NAMED 1982-09-23 03:00:00 NR 28.5143 137.722 main 575 479 __________P___ -1 28.5143 137.722 1 34 33
1982261N20150 1982 79 WP MM NOT_NAMED 1982-09-23 06:00:00 NR 30.0503 138.937 main 470 369 __________P___ -1 30.0503 138.937 1 38 36
1982261N20150 1982 79 WP MM NOT_NAMED 1982-09-23 09:00:00 NR 31.6097 140.313 main 362 272 __________P___ -1 31.6097 140.313 1 38 39
1982261N20150 1982 79 WP MM NOT_NAMED 1982-09-23 12:00:00 NR 33.0000 141.700 main 268 251 __________O___ -1 33.0000 141.700 1 33 42
1982261N20150 1982 79 WP MM NOT_NAMED 1982-09-23 15:00:00 NR 34.0823 142.965 main 261 260 __________P___ -1 34.0823 142.965 1 28 46
1982261N20150 1982 79 WP MM NOT_NAMED 1982-09-23 18:00:00 NR 34.9019 144.110 main 303 303 __________P___ -1 34.9019 144.110 1 23 51
1982261N20150 1982 79 WP MM NOT_NAMED 1982-09-23 21:00:00 NR 35.5463 145.172 main 388 387 __________P___ -1 35.5463 145.172 1 21 55
1982261N20150 1982 79 WP MM NOT_NAMED 1982-09-24 00:00:00 NR 36.1000 146.200 main 474 __________O___ -1 36.1000 146.200 1 20 56

デジタル台風データ・検索

IBTrACS Databaseについて

本データベースは、米国NOAAが公開する1842年以降の世界の熱帯低気圧のベストトラックデータアーカイブInternational Best Track Archive for Climate Stewardship (IBTrACS)を、ウェブで閲覧しやすい形式に変換したものです。

最終更新日:2021-10-21